createdAt,value
2018-04-30T00:00:49.425Z,99081.96
2018-04-30T00:01:52.833Z,99080.88
2018-04-30T00:02:56.270Z,99082.94
2018-04-30T00:03:59.652Z,99094.45
2018-04-30T00:05:03.104Z,99079.90
2018-04-30T00:06:06.420Z,99082.03
2018-04-30T00:07:09.812Z,99076.21
2018-04-30T00:08:14.095Z,99063.81
2018-04-30T00:09:18.285Z,99060.47
2018-04-30T00:10:21.725Z,99048.63
2018-04-30T00:11:25.155Z,99046.53
2018-04-30T00:12:28.568Z,99049.94
2018-04-30T00:13:32.668Z,99046.91
2018-04-30T00:14:36.750Z,99044.59
2018-04-30T00:15:40.212Z,99047.14
2018-04-30T00:16:43.622Z,99045.36
2018-04-30T00:17:47.025Z,99044.16
2018-04-30T00:18:51.167Z,99039.88
2018-04-30T00:19:55.455Z,99030.07
2018-04-30T00:20:59.605Z,99032.83
2018-04-30T00:22:02.939Z,99019.61
2018-04-30T00:23:06.318Z,99032.89
2018-04-30T00:24:09.769Z,99028.44
2018-04-30T00:25:13.058Z,99030.92
2018-04-30T00:27:19.586Z,99030.02
2018-04-30T00:28:22.926Z,99042.92
2018-04-30T00:29:26.301Z,99048.00
2018-04-30T00:30:29.662Z,99056.20
2018-04-30T00:31:33.117Z,99060.53
2018-04-30T00:32:36.720Z,99064.33
2018-04-30T00:33:40.182Z,99063.39
2018-04-30T00:34:43.511Z,99047.95
2018-04-30T00:35:46.877Z,99045.81
2018-04-30T00:36:50.206Z,99034.76
2018-04-30T00:37:53.559Z,99023.19
2018-04-30T00:38:56.929Z,99012.28
2018-04-30T00:40:00.287Z,99011.45
2018-04-30T00:41:03.641Z,98999.55
2018-04-30T00:42:06.997Z,98986.87
2018-04-30T00:43:10.432Z,98992.80
2018-04-30T00:44:13.828Z,98988.99
2018-04-30T00:45:17.307Z,98985.95
2018-04-30T00:46:21.469Z,98984.23
2018-04-30T00:47:24.822Z,98985.62
2018-04-30T00:48:28.323Z,98988.68
2018-04-30T00:49:31.683Z,98984.61
2018-04-30T00:50:35.291Z,98997.94
2018-04-30T00:51:38.641Z,99003.13
2018-04-30T00:52:42.158Z,99006.11
2018-04-30T00:53:46.237Z,99013.75
2018-04-30T00:55:01.308Z,99027.38
2018-04-30T00:56:05.404Z,99030.06
2018-04-30T00:57:08.736Z,99038.79
2018-04-30T00:58:12.108Z,99054.98
2018-04-30T00:59:15.497Z,99076.77
2018-04-30T01:00:18.832Z,99093.83
2018-04-30T01:01:22.178Z,99112.59
2018-04-30T01:02:25.629Z,99094.89
2018-04-30T01:03:29.110Z,99086.08
2018-04-30T01:04:32.469Z,99080.94
2018-04-30T01:05:35.828Z,99072.44
2018-04-30T01:06:39.233Z,99081.00
2018-04-30T01:07:42.638Z,99083.30
2018-04-30T01:08:45.952Z,99084.83
2018-04-30T01:09:50.198Z,99072.31
2018-04-30T01:10:53.645Z,99061.76
2018-04-30T01:11:57.095Z,99047.05
2018-04-30T01:13:00.422Z,99041.06
2018-04-30T01:14:04.505Z,99029.41
2018-04-30T01:15:07.827Z,99023.26
2018-04-30T01:16:11.202Z,99033.34
2018-04-30T01:17:15.750Z,99042.54
2018-04-30T01:18:19.084Z,99049.74
2018-04-30T01:19:22.450Z,99045.80
2018-04-30T01:20:26.185Z,99030.27
2018-04-30T01:21:29.595Z,99009.13
2018-04-30T01:22:33.031Z,99009.13
2018-04-30T01:23:36.528Z,99007.80
2018-04-30T01:24:40.728Z,99021.99
2018-04-30T01:25:46.877Z,99012.86
2018-04-30T01:26:50.210Z,99012.41
2018-04-30T01:27:53.575Z,99011.11
2018-04-30T01:28:56.945Z,99007.73
2018-04-30T01:30:01.235Z,99003.80
2018-04-30T01:31:04.685Z,98994.86
2018-04-30T01:32:08.337Z,98995.58
2018-04-30T01:33:12.454Z,99002.91
2018-04-30T01:34:16.009Z,99006.77
2018-04-30T01:35:19.339Z,99001.16
2018-04-30T01:36:22.748Z,99005.89
2018-04-30T01:37:26.239Z,98990.39
2018-04-30T01:38:30.268Z,99006.34
2018-04-30T01:39:33.691Z,99005.36
2018-04-30T01:40:37.845Z,98996.27
2018-04-30T01:41:41.177Z,98995.95
2018-04-30T01:42:45.309Z,99001.13
2018-04-30T01:43:48.729Z,98988.66
2018-04-30T01:44:52.062Z,99004.11
2018-04-30T01:45:55.427Z,99009.72
2018-04-30T01:46:59.576Z,99017.50
2018-04-30T01:48:03.058Z,99018.93
2018-04-30T01:49:06.505Z,99025.00
2018-04-30T01:50:10.717Z,99019.50
2018-04-30T01:51:15.088Z,99018.69
2018-04-30T01:52:18.448Z,99016.10
2018-04-30T01:53:21.824Z,99017.89
2018-04-30T01:54:25.193Z,99011.93
2018-04-30T01:55:28.568Z,99017.95
2018-04-30T01:56:32.713Z,99015.38
2018-04-30T01:57:36.098Z,99008.45
2018-04-30T01:58:40.363Z,99008.08
2018-04-30T01:59:44.514Z,99008.88
2018-04-30T02:00:47.830Z,99008.56
2018-04-30T02:01:51.183Z,99011.56
2018-04-30T02:02:54.574Z,99002.87
2018-04-30T02:03:58.032Z,99008.53
2018-04-30T02:05:01.407Z,99014.56
2018-04-30T02:06:04.911Z,99002.53
2018-04-30T02:07:08.332Z,99011.17
2018-04-30T02:08:11.753Z,99019.84
2018-04-30T02:09:15.098Z,99014.30
2018-04-30T02:10:18.435Z,99012.20
2018-04-30T02:11:21.891Z,99004.94
2018-04-30T02:12:25.224Z,99007.11
2018-04-30T02:13:28.535Z,99004.55
2018-04-30T02:14:31.904Z,99011.86
2018-04-30T02:15:35.326Z,99011.00
2018-04-30T02:16:38.782Z,99006.30
2018-04-30T02:17:42.098Z,98992.66
2018-04-30T02:18:45.489Z,98991.36
2018-04-30T02:19:48.866Z,98994.84
2018-04-30T02:20:52.266Z,99001.27
2018-04-30T02:21:55.691Z,98999.58
2018-04-30T02:22:59.047Z,99009.87
2018-04-30T02:24:02.389Z,99011.62
2018-04-30T02:25:05.862Z,99002.09
2018-04-30T02:26:09.247Z,99011.18
2018-04-30T02:27:13.521Z,99018.48
2018-04-30T02:28:18.417Z,99018.03
2018-04-30T02:29:21.806Z,99013.77
2018-04-30T02:31:38.916Z,99009.53
2018-04-30T02:32:43.241Z,99010.83
2018-04-30T02:33:46.648Z,99005.70
2018-04-30T02:34:50.029Z,99005.27
2018-04-30T02:35:53.402Z,99003.13
2018-04-30T02:36:56.779Z,99014.73
2018-04-30T02:38:00.935Z,99008.33
2018-04-30T02:39:05.346Z,99005.77
2018-04-30T02:40:08.779Z,99010.55
2018-04-30T02:41:12.185Z,99008.33
2018-04-30T02:42:15.596Z,99007.46
2018-04-30T02:43:19.799Z,99003.14
2018-04-30T02:44:23.117Z,98991.59
2018-04-30T02:45:26.530Z,98991.31
2018-04-30T02:46:30.184Z,98976.56
2018-04-30T02:47:33.602Z,98980.59
2018-04-30T02:48:36.938Z,98985.32
2018-04-30T02:49:40.356Z,98993.78
2018-04-30T02:50:43.935Z,98985.61
2018-04-30T02:51:47.314Z,98994.19
2018-04-30T02:52:50.932Z,98985.19
2018-04-30T02:53:54.327Z,98993.83
2018-04-30T02:56:15.349Z,98984.12
2018-04-30T02:57:18.740Z,98985.31
2018-04-30T02:58:22.970Z,98982.27
2018-04-30T02:59:26.520Z,98984.45
2018-04-30T03:00:29.959Z,98983.83
2018-04-30T03:01:33.445Z,98985.03
2018-04-30T03:02:36.903Z,98979.74
2018-04-30T03:03:40.307Z,98983.32
2018-04-30T03:04:44.455Z,98984.89
2018-04-30T03:05:47.834Z,98990.77
2018-04-30T03:06:51.157Z,98978.01
2018-04-30T03:07:54.475Z,98996.39
2018-04-30T03:08:57.843Z,99002.00
2018-04-30T03:10:01.985Z,98988.69
2018-04-30T03:11:05.307Z,99002.84
2018-04-30T03:12:08.699Z,99009.61
2018-04-30T03:13:12.131Z,99010.00
2018-04-30T03:14:15.517Z,99011.36
2018-04-30T03:15:18.867Z,99005.41
2018-04-30T03:16:22.223Z,99011.45
2018-04-30T03:17:25.624Z,99003.63
2018-04-30T03:18:29.022Z,99016.45
2018-04-30T03:19:32.602Z,99021.57
2018-04-30T03:20:35.971Z,99023.02
2018-04-30T03:21:39.264Z,99025.55
2018-04-30T03:22:42.586Z,99020.38
2018-04-30T03:23:46.933Z,99016.02
2018-04-30T03:24:50.370Z,99023.75
2018-04-30T03:25:53.750Z,99021.99
2018-04-30T03:26:57.173Z,99025.42
2018-04-30T03:28:02.144Z,99025.52
2018-04-30T03:29:05.465Z,99024.59
2018-04-30T03:30:08.835Z,99030.55
2018-04-30T03:31:12.233Z,99034.02
2018-04-30T03:32:15.650Z,99038.79
2018-04-30T03:33:19.036Z,99037.47
2018-04-30T03:34:22.407Z,99041.27
2018-04-30T03:35:25.951Z,99044.27
2018-04-30T03:36:29.270Z,99046.83
2018-04-30T03:37:32.690Z,99046.02
2018-04-30T03:38:36.027Z,99046.43
2018-04-30T03:39:40.339Z,99040.09
2018-04-30T03:40:44.468Z,99045.17
2018-04-30T03:41:47.802Z,99044.34
2018-04-30T03:42:52.033Z,99045.16
2018-04-30T03:43:56.104Z,99049.88
2018-04-30T03:44:59.457Z,99049.02
2018-04-30T03:46:02.816Z,99047.33
2018-04-30T03:47:06.939Z,99037.77
2018-04-30T03:48:10.311Z,99055.81
2018-04-30T03:49:13.646Z,99054.13
2018-04-30T03:50:16.983Z,99051.59
2018-04-30T03:51:20.413Z,99057.27
2018-04-30T03:52:23.858Z,99047.36
2018-04-30T03:53:27.214Z,99059.19
2018-04-30T03:54:31.365Z,99057.03
2018-04-30T03:55:46.424Z,99061.56
2018-04-30T03:56:50.656Z,99057.66
2018-04-30T03:57:54.313Z,99053.02
2018-04-30T03:58:57.766Z,99048.58
2018-04-30T04:00:01.166Z,99052.86
2018-04-30T04:01:22.660Z,99054.12
2018-04-30T04:02:43.574Z,99057.47
2018-04-30T04:04:05.166Z,99061.44
2018-04-30T04:05:26.108Z,99076.91
2018-04-30T04:08:11.190Z,99067.33
2018-04-30T04:09:14.515Z,99065.17
2018-04-30T04:10:17.883Z,99058.70
2018-04-30T04:11:21.367Z,99060.85
2018-04-30T04:12:24.708Z,99061.70
2018-04-30T04:13:28.101Z,99059.53
2018-04-30T04:14:31.578Z,99056.08
2018-04-30T04:15:34.981Z,99061.23
2018-04-30T04:16:38.356Z,99065.09
2018-04-30T04:17:42.491Z,99062.05
2018-04-30T04:18:45.811Z,99062.56
2018-04-30T04:19:49.140Z,99063.71
2018-04-30T04:20:52.508Z,99064.72
2018-04-30T04:21:55.935Z,99069.00
2018-04-30T04:22:59.187Z,99068.95
2018-04-30T04:24:02.555Z,99070.25
2018-04-30T04:25:06.641Z,99079.68
2018-04-30T04:26:10.030Z,99083.09
2018-04-30T04:27:14.163Z,99083.55
2018-04-30T04:28:17.493Z,99084.02
2018-04-30T04:29:20.863Z,99081.42
2018-04-30T04:30:24.364Z,99082.70
2018-04-30T04:31:27.701Z,99073.60
2018-04-30T04:32:31.163Z,99077.53
2018-04-30T04:33:34.619Z,99089.94
2018-04-30T04:34:37.954Z,99095.58
2018-04-30T04:35:41.380Z,99088.84
2018-04-30T04:36:44.720Z,99093.08
2018-04-30T04:37:48.067Z,99097.29
2018-04-30T04:38:51.371Z,99092.30
2018-04-30T04:39:55.402Z,99099.11
2018-04-30T04:40:59.572Z,99099.03
2018-04-30T04:42:03.100Z,99097.25
2018-04-30T04:43:06.537Z,99097.70
2018-04-30T04:44:10.033Z,99092.99
2018-04-30T04:45:13.505Z,99101.10
2018-04-30T04:46:16.871Z,99098.52
2018-04-30T04:47:20.593Z,99092.91
2018-04-30T04:48:23.963Z,99098.38
2018-04-30T04:49:27.296Z,99100.14
2018-04-30T04:50:30.702Z,99096.45
2018-04-30T04:51:34.168Z,99099.92
2018-04-30T04:52:38.335Z,99105.86
2018-04-30T04:53:41.634Z,99104.92
2018-04-30T04:54:45.148Z,99097.08
2018-04-30T04:55:48.624Z,99110.77
2018-04-30T04:56:51.984Z,99109.95
2018-04-30T04:57:55.333Z,99117.72
2018-04-30T04:58:58.731Z,99119.94
2018-04-30T05:00:02.062Z,99107.39
2018-04-30T05:01:05.525Z,99120.80
2018-04-30T05:02:09.730Z,99121.19
2018-04-30T05:03:13.049Z,99121.55
2018-04-30T05:04:17.192Z,99121.98
2018-04-30T05:05:20.557Z,99116.50
2018-04-30T05:06:23.931Z,99124.09
2018-04-30T05:07:27.229Z,99124.91
2018-04-30T05:08:30.555Z,99120.97
2018-04-30T05:09:33.955Z,99132.41
2018-04-30T05:10:38.146Z,99131.45
2018-04-30T05:11:41.480Z,99131.02
2018-04-30T05:12:44.911Z,99118.79
2018-04-30T05:13:48.545Z,99126.20
2018-04-30T05:14:51.861Z,99139.44
2018-04-30T05:15:56.026Z,99136.95
2018-04-30T05:16:59.375Z,99141.59
2018-04-30T05:18:03.021Z,99142.48
2018-04-30T05:19:06.365Z,99149.68
2018-04-30T05:20:09.765Z,99140.19
2018-04-30T05:21:13.171Z,99141.92
2018-04-30T05:22:16.567Z,99143.38
2018-04-30T05:23:19.980Z,99146.13
2018-04-30T05:24:23.403Z,99139.42
2018-04-30T05:25:26.714Z,99138.55
2018-04-30T05:26:30.019Z,99138.97
2018-04-30T05:27:33.365Z,99136.25
2018-04-30T05:28:36.742Z,99127.09
2018-04-30T05:29:40.081Z,99132.63
2018-04-30T05:30:43.477Z,99133.06
2018-04-30T05:31:47.118Z,99137.39
2018-04-30T05:32:50.454Z,99129.58
2018-04-30T05:33:53.832Z,99135.58
2018-04-30T05:34:57.092Z,99140.30
2018-04-30T05:36:00.400Z,99139.30
2018-04-30T05:37:04.537Z,99147.34
2018-04-30T05:38:07.976Z,99147.90
2018-04-30T05:39:11.288Z,99150.43
2018-04-30T05:40:14.706Z,99151.66
2018-04-30T05:41:18.097Z,99155.44
2018-04-30T05:42:21.439Z,99153.29
2018-04-30T05:43:25.008Z,99161.83
2018-04-30T05:44:29.143Z,99168.70
2018-04-30T05:45:32.539Z,99167.53
2018-04-30T05:46:35.927Z,99172.19
2018-04-30T05:47:39.250Z,99166.57
2018-04-30T05:48:42.567Z,99178.14
2018-04-30T05:50:57.770Z,99163.52
2018-04-30T05:52:01.170Z,99173.00
2018-04-30T05:53:04.484Z,99158.75
2018-04-30T05:54:07.840Z,99181.41
2018-04-30T05:55:11.191Z,99172.30
2018-04-30T05:56:14.520Z,99180.84
2018-04-30T05:57:17.916Z,99187.67
2018-04-30T05:58:21.298Z,99184.66
2018-04-30T05:59:24.679Z,99179.52
2018-04-30T06:00:28.293Z,99190.72
2018-04-30T06:01:31.659Z,99189.05
2018-04-30T06:02:35.016Z,99186.05
2018-04-30T06:03:38.376Z,99189.02
2018-04-30T06:04:41.777Z,99181.30
2018-04-30T06:05:45.115Z,99179.63
2018-04-30T06:06:48.614Z,99174.19
2018-04-30T06:07:51.863Z,99175.09
2018-04-30T06:08:55.179Z,99169.99
2018-04-30T06:09:58.487Z,99169.13
2018-04-30T06:11:01.962Z,99172.64
2018-04-30T06:12:05.346Z,99168.41
2018-04-30T06:13:08.659Z,99175.15
2018-04-30T06:14:11.981Z,99184.63
2018-04-30T06:15:15.440Z,99189.34
2018-04-30T06:16:18.731Z,99201.45
2018-04-30T06:17:22.115Z,99202.69
2018-04-30T06:18:25.437Z,99208.08
2018-04-30T06:19:28.769Z,99201.88
2018-04-30T06:20:32.115Z,99216.91
2018-04-30T06:21:35.418Z,99224.58
2018-04-30T06:22:39.502Z,99225.42
2018-04-30T06:23:42.804Z,99224.51
2018-04-30T06:24:46.109Z,99228.79
2018-04-30T06:25:49.482Z,99224.55
2018-04-30T06:26:52.875Z,99221.52
2018-04-30T06:27:56.197Z,99231.38
2018-04-30T06:28:59.681Z,99228.45
2018-04-30T06:30:03.008Z,99230.95
2018-04-30T06:31:06.332Z,99219.30
2018-04-30T06:32:09.652Z,99227.05
2018-04-30T06:33:13.027Z,99223.23
2018-04-30T06:34:16.321Z,99216.87
2018-04-30T06:35:19.647Z,99230.56
2018-04-30T06:36:22.994Z,99215.84
2018-04-30T06:37:26.303Z,99232.77
2018-04-30T06:38:29.689Z,99231.03
2018-04-30T06:39:33.043Z,99226.77
2018-04-30T06:40:36.417Z,99223.73
2018-04-30T06:41:39.740Z,99231.49
2018-04-30T06:42:43.060Z,99232.41
2018-04-30T06:43:46.437Z,99239.63
2018-04-30T06:44:49.805Z,99231.78
2018-04-30T06:45:53.303Z,99234.42
2018-04-30T06:46:57.093Z,99229.22
2018-04-30T06:48:01.487Z,99226.63
2018-04-30T06:49:04.898Z,99238.23
2018-04-30T06:50:08.297Z,99235.00
2018-04-30T06:51:11.930Z,99238.41
2018-04-30T06:52:15.273Z,99238.37
2018-04-30T06:53:18.601Z,99232.80
2018-04-30T06:54:22.123Z,99228.95
2018-04-30T06:55:25.568Z,99231.12
2018-04-30T06:56:29.120Z,99229.81
2018-04-30T06:57:32.716Z,99226.39
2018-04-30T06:58:36.080Z,99235.05
2018-04-30T06:59:39.579Z,99243.73
2018-04-30T07:00:42.900Z,99239.02
2018-04-30T07:01:46.208Z,99236.93
2018-04-30T07:02:49.840Z,99236.97
2018-04-30T07:03:54.052Z,99237.87
2018-04-30T07:04:57.448Z,99240.98
2018-04-30T07:06:00.973Z,99238.02
2018-04-30T07:07:04.779Z,99231.50
2018-04-30T07:08:08.427Z,99236.28
2018-04-30T07:09:12.078Z,99235.36
2018-04-30T07:10:15.745Z,99238.37
2018-04-30T07:11:19.585Z,99245.66
2018-04-30T07:12:24.136Z,99244.73
2018-04-30T07:13:27.507Z,99254.15
2018-04-30T07:14:30.837Z,99263.15
2018-04-30T07:15:34.162Z,99256.17
2018-04-30T07:16:37.533Z,99262.25
2018-04-30T07:17:40.820Z,99258.40
2018-04-30T07:18:44.157Z,99256.59
2018-04-30T07:19:47.483Z,99256.52
2018-04-30T07:20:50.791Z,99258.62
2018-04-30T07:21:54.898Z,99255.25
2018-04-30T07:22:58.253Z,99264.68
2018-04-30T07:24:01.610Z,99250.34
2018-04-30T07:25:04.984Z,99258.53
2018-04-30T07:26:08.652Z,99260.14
2018-04-30T07:27:11.979Z,99262.30
2018-04-30T07:28:15.328Z,99257.09
2018-04-30T07:29:18.640Z,99259.68
2018-04-30T07:30:22.030Z,99260.98
2018-04-30T07:31:25.332Z,99258.36
2018-04-30T07:32:29.566Z,99266.58
2018-04-30T07:33:33.646Z,99259.69
2018-04-30T07:34:36.995Z,99266.12
2018-04-30T07:35:40.307Z,99261.78
2018-04-30T07:36:43.603Z,99263.88
2018-04-30T07:37:46.991Z,99264.38
2018-04-30T07:38:50.344Z,99273.77
2018-04-30T07:39:53.684Z,99259.55
2018-04-30T07:40:57.023Z,99262.35
2018-04-30T07:42:00.337Z,99259.29
2018-04-30T07:43:03.685Z,99252.78
2018-04-30T07:44:07.367Z,99260.87
2018-04-30T07:45:11.108Z,99267.70
2018-04-30T07:46:14.432Z,99261.22
2018-04-30T07:47:17.772Z,99272.80
2018-04-30T07:48:21.080Z,99277.55
2018-04-30T07:49:24.519Z,99278.40
2018-04-30T07:50:28.019Z,99286.92
2018-04-30T07:51:31.326Z,99291.41
2018-04-30T07:52:34.634Z,99293.06
2018-04-30T07:53:37.962Z,99295.20
2018-04-30T07:54:41.276Z,99290.20
2018-04-30T07:55:44.607Z,99284.16
2018-04-30T07:56:47.968Z,99277.70
2018-04-30T07:57:51.299Z,99279.52
2018-04-30T07:58:54.635Z,99282.06
2018-04-30T07:59:57.971Z,99277.20
2018-04-30T08:01:01.381Z,99279.73
2018-04-30T08:02:04.698Z,99283.09
2018-04-30T08:03:08.059Z,99280.48
2018-04-30T08:04:11.344Z,99286.03
2018-04-30T08:05:15.668Z,99281.72
2018-04-30T08:06:19.110Z,99281.70
2018-04-30T08:07:22.441Z,99276.52
2018-04-30T08:08:25.777Z,99281.21
2018-04-30T08:09:29.112Z,99282.16
2018-04-30T08:10:32.430Z,99284.37
2018-04-30T08:11:35.784Z,99284.72
2018-04-30T08:12:39.137Z,99279.48
2018-04-30T08:13:42.491Z,99284.30
2018-04-30T08:14:45.822Z,99283.06
2018-04-30T08:15:49.177Z,99278.09
2018-04-30T08:16:52.487Z,99287.27
2018-04-30T08:17:55.972Z,99290.80
2018-04-30T08:19:00.069Z,99291.31
2018-04-30T08:20:03.385Z,99284.87
2018-04-30T08:21:06.746Z,99284.17
2018-04-30T08:22:10.148Z,99289.30
2018-04-30T08:23:13.470Z,99288.48
2018-04-30T08:24:16.790Z,99286.31
2018-04-30T08:25:20.098Z,99285.05
2018-04-30T08:26:24.198Z,99285.50
2018-04-30T08:27:27.538Z,99294.38
2018-04-30T08:28:30.873Z,99286.75
2018-04-30T08:29:34.975Z,99287.82
2018-04-30T08:30:38.577Z,99292.11
2018-04-30T08:31:42.829Z,99286.72
2018-04-30T08:32:46.344Z,99288.05
2018-04-30T08:33:49.661Z,99292.15
2018-04-30T08:34:53.096Z,99305.00
2018-04-30T08:35:56.408Z,99308.78
2018-04-30T08:37:00.510Z,99303.83
2018-04-30T08:38:03.833Z,99312.83
2018-04-30T08:39:07.162Z,99315.31
2018-04-30T08:40:10.481Z,99315.22
2018-04-30T08:41:13.867Z,99317.45
2018-04-30T08:42:17.959Z,99315.24
2018-04-30T08:43:21.270Z,99322.41
2018-04-30T08:44:24.622Z,99321.48
2018-04-30T08:45:27.943Z,99316.38
2018-04-30T08:46:31.246Z,99318.45
2018-04-30T08:47:34.563Z,99316.28
2018-04-30T08:48:37.904Z,99322.37
2018-04-30T08:49:41.234Z,99321.45
2018-04-30T08:50:44.570Z,99316.77
2018-04-30T08:51:47.925Z,99319.28
2018-04-30T08:52:51.231Z,99318.72
2018-04-30T08:53:54.629Z,99321.23
2018-04-30T08:54:58.049Z,99325.02
2018-04-30T08:56:01.369Z,99323.03
2018-04-30T08:57:04.686Z,99325.17
2018-04-30T08:58:08.816Z,99330.81
2018-04-30T08:59:12.207Z,99341.16
2018-04-30T09:00:15.654Z,99341.36
2018-04-30T09:01:18.953Z,99343.80
2018-04-30T09:02:22.276Z,99342.59
2018-04-30T09:03:25.598Z,99337.70
2018-04-30T09:04:29.705Z,99341.75
2018-04-30T09:05:33.123Z,99338.37
2018-04-30T09:06:36.473Z,99339.30
2018-04-30T09:07:40.571Z,99331.17
2018-04-30T09:08:43.990Z,99341.25
2018-04-30T09:09:47.373Z,99336.56
2018-04-30T09:10:51.425Z,99340.98
2018-04-30T09:11:54.800Z,99337.65
2018-04-30T09:12:58.098Z,99335.60
2018-04-30T09:14:01.531Z,99342.07
2018-04-30T09:15:05.832Z,99337.81
2018-04-30T09:16:09.917Z,99344.29
2018-04-30T09:17:13.312Z,99344.36
2018-04-30T09:18:16.669Z,99345.61
2018-04-30T09:19:20.012Z,99352.16
2018-04-30T09:20:23.411Z,99346.91
2018-04-30T09:21:26.724Z,99339.55
2018-04-30T09:22:30.040Z,99338.84
2018-04-30T09:23:33.366Z,99345.70
2018-04-30T09:24:36.674Z,99348.18
2018-04-30T09:25:39.992Z,99349.97
2018-04-30T09:26:43.310Z,99349.84
2018-04-30T09:27:46.605Z,99343.88
2018-04-30T09:28:49.902Z,99341.28
2018-04-30T09:29:53.266Z,99348.23
2018-04-30T09:30:56.662Z,99343.66
2018-04-30T09:32:00.046Z,99341.59
2018-04-30T09:33:03.360Z,99332.95
2018-04-30T09:34:06.711Z,99342.92
2018-04-30T09:35:10.079Z,99346.91
2018-04-30T09:36:13.432Z,99348.26
2018-04-30T09:37:17.512Z,99350.36
2018-04-30T09:38:20.805Z,99349.92
2018-04-30T09:39:24.184Z,99348.77
2018-04-30T09:40:27.513Z,99349.20
2018-04-30T09:41:30.852Z,99354.36
2018-04-30T09:42:34.190Z,99349.61
2018-04-30T09:43:37.596Z,99344.52
2018-04-30T09:44:40.934Z,99339.03
2018-04-30T09:45:45.499Z,99339.88
2018-04-30T09:46:48.848Z,99340.77
2018-04-30T09:47:52.180Z,99341.17
2018-04-30T09:48:55.530Z,99336.47
2018-04-30T09:49:58.823Z,99341.66
2018-04-30T09:51:02.122Z,99345.98
2018-04-30T09:52:05.456Z,99345.56
2018-04-30T09:53:08.833Z,99345.63
2018-04-30T09:54:12.133Z,99341.77
2018-04-30T09:55:15.461Z,99337.02
2018-04-30T09:56:18.760Z,99347.38
2018-04-30T09:57:22.171Z,99348.28
2018-04-30T09:58:25.531Z,99345.67
2018-04-30T09:59:28.916Z,99352.15
2018-04-30T10:00:32.254Z,99342.67
2018-04-30T10:01:35.572Z,99342.24
2018-04-30T10:02:38.882Z,99347.42
2018-04-30T10:03:42.341Z,99355.16
2018-04-30T10:04:45.686Z,99340.94
2018-04-30T10:05:49.826Z,99346.54
2018-04-30T10:06:53.149Z,99348.68
2018-04-30T10:07:57.246Z,99345.22
2018-04-30T10:09:00.584Z,99342.61
2018-04-30T10:10:03.903Z,99355.11
2018-04-30T10:11:07.214Z,99360.70
2018-04-30T10:12:11.497Z,99357.18
2018-04-30T10:13:14.940Z,99366.63
2018-04-30T10:14:18.308Z,99359.37
2018-04-30T10:15:22.388Z,99358.45
2018-04-30T10:16:25.761Z,99361.13
2018-04-30T10:17:29.075Z,99359.41
2018-04-30T10:18:33.167Z,99352.89
2018-04-30T10:19:37.321Z,99359.78
2018-04-30T10:20:40.637Z,99351.61
2018-04-30T10:21:43.960Z,99359.81
2018-04-30T10:22:47.313Z,99347.30
2018-04-30T10:23:50.788Z,99347.30
2018-04-30T10:24:54.045Z,99353.77
2018-04-30T10:25:57.467Z,99343.42
2018-04-30T10:27:00.805Z,99340.31
2018-04-30T10:28:06.450Z,99344.11
2018-04-30T10:29:09.919Z,99344.19
2018-04-30T10:30:13.971Z,99352.03
2018-04-30T10:31:17.311Z,99345.11
2018-04-30T10:32:21.228Z,99343.42
2018-04-30T10:33:25.709Z,99338.65
2018-04-30T10:34:30.385Z,99327.88
2018-04-30T10:35:33.720Z,99336.57
2018-04-30T10:36:37.052Z,99339.60
2018-04-30T10:37:40.462Z,99332.67
2018-04-30T10:38:43.846Z,99330.98
2018-04-30T10:39:47.190Z,99331.81
2018-04-30T10:40:50.505Z,99338.31
2018-04-30T10:41:53.818Z,99339.63
2018-04-30T10:42:57.905Z,99348.27
2018-04-30T10:44:01.241Z,99338.34
2018-04-30T10:45:04.607Z,99342.66
2018-04-30T10:46:07.977Z,99343.09
2018-04-30T10:47:11.296Z,99344.78
2018-04-30T10:48:14.648Z,99337.83
2018-04-30T10:49:18.737Z,99340.89
2018-04-30T10:50:22.245Z,99330.91
2018-04-30T10:51:25.631Z,99348.59
2018-04-30T10:52:28.998Z,99331.78
2018-04-30T10:53:32.465Z,99331.77
2018-04-30T10:54:35.850Z,99337.37
2018-04-30T10:55:39.217Z,99339.97
2018-04-30T10:56:42.585Z,99335.64
2018-04-30T10:57:45.977Z,99335.17
2018-04-30T10:58:49.483Z,99332.19
2018-04-30T10:59:53.425Z,99328.30
2018-04-30T11:00:56.958Z,99331.33
2018-04-30T11:02:00.489Z,99336.48
2018-04-30T11:03:05.245Z,99330.05
2018-04-30T11:04:10.577Z,99327.43
2018-04-30T11:05:14.028Z,99338.18
2018-04-30T11:06:17.341Z,99328.70
2018-04-30T11:07:20.699Z,99327.00
2018-04-30T11:08:24.019Z,99327.81
2018-04-30T11:09:27.319Z,99327.41
2018-04-30T11:10:30.682Z,99322.20
2018-04-30T11:12:43.625Z,99318.63
2018-04-30T11:13:47.008Z,99322.52
2018-04-30T11:14:50.342Z,99328.95
2018-04-30T11:15:53.656Z,99329.87
2018-04-30T11:16:56.996Z,99321.70
2018-04-30T11:18:00.322Z,99320.41
2018-04-30T11:19:03.750Z,99326.03
2018-04-30T11:20:07.090Z,99313.89
2018-04-30T11:21:11.206Z,99325.96
2018-04-30T11:22:14.565Z,99321.34
2018-04-30T11:23:19.553Z,99318.69
2018-04-30T11:24:22.854Z,99329.91
2018-04-30T11:25:26.184Z,99316.64
2018-04-30T11:26:29.529Z,99317.53
2018-04-30T11:27:32.861Z,99323.65
2018-04-30T11:28:36.227Z,99327.53
2018-04-30T11:29:40.344Z,99329.72
2018-04-30T11:30:43.648Z,99321.06
2018-04-30T11:31:47.008Z,99323.26
2018-04-30T11:32:50.504Z,99318.94
2018-04-30T11:33:53.847Z,99324.97
2018-04-30T11:34:57.255Z,99316.34
2018-04-30T11:36:00.684Z,99305.55
2018-04-30T11:37:04.140Z,99316.77
2018-04-30T11:38:07.537Z,99299.50
2018-04-30T11:39:10.939Z,99324.08
2018-04-30T11:40:14.445Z,99318.86
2018-04-30T11:41:17.926Z,99318.91
2018-04-30T11:42:21.339Z,99321.92
2018-04-30T11:43:24.894Z,99317.58
2018-04-30T11:44:29.921Z,99324.06
2018-04-30T11:45:37.463Z,99318.45
2018-04-30T11:46:41.256Z,99327.53
2018-04-30T11:47:45.076Z,99326.22
2018-04-30T11:48:51.027Z,99312.46
2018-04-30T11:49:54.347Z,99331.81
2018-04-30T11:50:57.678Z,99324.42
2018-04-30T11:52:01.068Z,99330.90
2018-04-30T11:53:04.632Z,99331.75
2018-04-30T11:54:08.018Z,99327.00
2018-04-30T11:55:12.173Z,99336.08
2018-04-30T11:56:15.767Z,99324.86
2018-04-30T11:57:19.516Z,99324.45
2018-04-30T11:58:23.195Z,99332.58
2018-04-30T11:59:26.531Z,99332.54
2018-04-30T12:00:29.860Z,99318.36
2018-04-30T12:01:33.192Z,99331.27
2018-04-30T12:02:36.660Z,99325.69
2018-04-30T12:03:40.782Z,99337.72
2018-04-30T12:04:44.247Z,99323.46
2018-04-30T12:05:47.614Z,99335.98
2018-04-30T12:06:51.737Z,99337.27
2018-04-30T12:07:55.934Z,99345.39
2018-04-30T12:08:59.286Z,99334.11
2018-04-30T12:10:02.627Z,99347.20
2018-04-30T12:11:06.148Z,99351.45
2018-04-30T12:12:09.497Z,99355.88
2018-04-30T12:13:12.983Z,99360.63
2018-04-30T12:14:16.358Z,99354.23
2018-04-30T12:15:19.894Z,99360.28
2018-04-30T12:16:23.250Z,99383.20
2018-04-30T12:17:26.728Z,99390.99
2018-04-30T12:18:30.539Z,99384.94
2018-04-30T12:19:34.212Z,99390.54
2018-04-30T12:20:37.747Z,99379.76
2018-04-30T12:21:41.079Z,99381.48
2018-04-30T12:22:44.478Z,99383.20
2018-04-30T12:23:47.851Z,99379.33
2018-04-30T12:24:51.186Z,99377.17
2018-04-30T12:25:54.862Z,99374.97
2018-04-30T12:26:58.215Z,99380.58
2018-04-30T12:28:01.608Z,99388.77
2018-04-30T12:29:05.741Z,99384.86
2018-04-30T12:30:09.083Z,99388.66
2018-04-30T12:31:12.492Z,99390.31
2018-04-30T12:32:15.837Z,99388.47
2018-04-30T12:33:19.191Z,99394.05
2018-04-30T12:34:22.593Z,99388.27
2018-04-30T12:35:25.977Z,99400.84